createdAt,value
2023-01-13T00:00:38.418Z,0.60
2023-01-13T00:03:06.812Z,0.70
2023-01-13T00:05:35.953Z,0.60
2023-01-13T00:08:06.469Z,1.00
2023-01-13T00:10:36.895Z,0.70
2023-01-13T00:13:06.901Z,0.80
2023-01-13T00:15:35.554Z,0.80
2023-01-13T00:18:04.923Z,0.90
2023-01-13T00:20:33.460Z,0.80
2023-01-13T00:23:01.751Z,0.68
2023-01-13T00:25:30.039Z,0.80
2023-01-13T00:27:59.763Z,0.60
2023-01-13T00:30:27.980Z,0.60
2023-01-13T00:32:56.316Z,0.70
2023-01-13T00:35:24.557Z,1.00
2023-01-13T00:37:53.749Z,0.60
2023-01-13T00:40:21.953Z,0.80
2023-01-13T00:43:07.415Z,0.70
2023-01-13T00:45:37.039Z,0.60
2023-01-13T00:48:05.611Z,0.50
2023-01-13T00:50:34.305Z,0.80
2023-01-13T00:53:03.236Z,0.70
2023-01-13T00:55:32.919Z,0.60
2023-01-13T00:58:03.710Z,0.50
2023-01-13T01:00:32.653Z,0.77
2023-01-13T01:03:02.523Z,0.80
2023-01-13T01:05:30.893Z,0.60
2023-01-13T01:07:59.216Z,0.80
2023-01-13T01:10:27.543Z,0.60
2023-01-13T01:12:55.773Z,0.70
2023-01-13T01:15:24.029Z,0.75
2023-01-13T01:17:52.451Z,0.85
2023-01-13T01:20:22.119Z,0.90
2023-01-13T01:22:50.487Z,0.80
2023-01-13T01:25:18.908Z,1.13
2023-01-13T01:27:47.119Z,1.20
2023-01-13T01:30:16.379Z,1.05
2023-01-13T01:32:44.755Z,0.90
2023-01-13T01:35:13.029Z,1.20
2023-01-13T01:37:42.831Z,1.42
2023-01-13T01:40:12.420Z,0.90
2023-01-13T01:42:58.151Z,1.40
2023-01-13T01:45:33.035Z,1.10
2023-01-13T01:48:04.006Z,1.50
2023-01-13T01:50:33.793Z,1.33
2023-01-13T01:53:08.445Z,1.10
2023-01-13T01:55:38.013Z,1.90
2023-01-13T01:58:11.403Z,1.10
2023-01-13T02:00:39.971Z,1.17
2023-01-13T02:03:09.866Z,1.30
2023-01-13T02:05:39.018Z,1.15
2023-01-13T02:08:10.959Z,1.30
2023-01-13T02:10:40.815Z,1.40
2023-01-13T02:13:13.161Z,1.00
2023-01-13T02:15:49.075Z,1.40
2023-01-13T02:18:41.567Z,1.10
2023-01-13T02:21:29.120Z,1.30
2023-01-13T02:24:57.283Z,1.10
2023-01-13T02:27:45.407Z,1.05
2023-01-13T02:30:39.000Z,1.10
2023-01-13T02:33:32.024Z,1.38
2023-01-13T02:36:05.551Z,1.63
2023-01-13T02:38:39.188Z,1.35
2023-01-13T02:41:30.857Z,1.50
2023-01-13T02:44:09.316Z,2.05
2023-01-13T02:46:46.914Z,1.40
2023-01-13T02:49:22.104Z,1.40
2023-01-13T02:51:52.595Z,1.33
2023-01-13T02:54:25.647Z,1.63
2023-01-13T02:56:55.915Z,1.58
2023-01-13T02:59:26.650Z,1.50
2023-01-13T03:01:58.174Z,1.58
2023-01-13T03:04:49.949Z,1.60
2023-01-13T03:07:46.770Z,1.80
2023-01-13T03:10:28.194Z,1.40
2023-01-13T03:13:03.111Z,1.40
2023-01-13T03:15:44.039Z,1.58
2023-01-13T03:18:25.895Z,1.88
2023-01-13T03:21:02.064Z,1.67
2023-01-13T03:23:36.693Z,1.40
2023-01-13T03:26:10.329Z,1.07
2023-01-13T03:28:42.944Z,1.20
2023-01-13T03:31:16.853Z,1.50
2023-01-13T03:33:51.026Z,1.55
2023-01-13T03:36:23.791Z,1.40
2023-01-13T03:38:55.617Z,0.90
2023-01-13T03:41:28.542Z,1.40
2023-01-13T03:47:43.789Z,1.75
2023-01-13T03:50:18.794Z,1.83
2023-01-13T03:52:50.587Z,1.57
2023-01-13T03:55:23.509Z,1.50
2023-01-13T03:57:58.953Z,1.73
2023-01-13T04:00:31.452Z,1.00
2023-01-13T04:03:06.518Z,2.25
2023-01-13T04:05:40.995Z,1.45
2023-01-13T04:08:17.563Z,1.80
2023-01-13T04:10:52.987Z,1.52
2023-01-13T04:13:24.295Z,1.58
2023-01-13T04:15:52.863Z,1.48
2023-01-13T04:18:24.721Z,1.23
2023-01-13T04:20:56.084Z,1.40
2023-01-13T04:23:24.714Z,1.02
2023-01-13T04:25:53.652Z,1.30
2023-01-13T04:28:22.388Z,1.60
2023-01-13T04:30:50.997Z,1.50
2023-01-13T04:33:20.647Z,1.25
2023-01-13T04:35:49.760Z,1.10
2023-01-13T04:38:21.115Z,1.20
2023-01-13T04:40:49.883Z,1.20
2023-01-13T04:43:18.494Z,1.02
2023-01-13T04:45:46.804Z,1.02
2023-01-13T04:48:15.010Z,0.80
2023-01-13T04:50:43.386Z,1.60
2023-01-13T04:53:11.684Z,1.00
2023-01-13T04:55:41.435Z,1.30
2023-01-13T04:58:10.967Z,1.30
2023-01-13T05:00:39.954Z,1.38
2023-01-13T05:03:08.216Z,1.55
2023-01-13T05:05:37.923Z,0.90
2023-01-13T05:08:06.570Z,1.20
2023-01-13T05:10:34.983Z,1.65
2023-01-13T05:13:22.019Z,1.13
2023-01-13T05:16:09.262Z,1.40
2023-01-13T05:18:39.398Z,1.20
2023-01-13T05:21:27.865Z,1.13
2023-01-13T05:24:13.763Z,1.77
2023-01-13T05:26:42.100Z,1.30
2023-01-13T05:29:11.760Z,1.65
2023-01-13T05:31:40.001Z,1.13
2023-01-13T05:34:08.265Z,1.63
2023-01-13T05:36:36.488Z,2.10
2023-01-13T05:39:05.512Z,1.40
2023-01-13T05:41:51.713Z,1.33
2023-01-13T05:44:21.439Z,1.38
2023-01-13T05:46:49.721Z,1.80
2023-01-13T05:49:18.131Z,2.00
2023-01-13T05:51:46.390Z,1.70
2023-01-13T05:54:14.694Z,1.60
2023-01-13T05:56:42.912Z,2.00
2023-01-13T05:59:11.237Z,1.50
2023-01-13T06:01:40.869Z,1.90
2023-01-13T06:04:09.202Z,1.27
2023-01-13T06:06:37.508Z,1.90
2023-01-13T06:09:05.738Z,1.42
2023-01-13T06:11:33.994Z,1.30
2023-01-13T06:14:02.209Z,1.65
2023-01-13T06:16:30.509Z,1.80
2023-01-13T06:19:00.395Z,1.58
2023-01-13T06:21:28.833Z,1.40
2023-01-13T06:23:57.603Z,1.60
2023-01-13T06:26:29.022Z,1.20
2023-01-13T06:28:57.216Z,1.33
2023-01-13T06:31:28.711Z,1.90
2023-01-13T06:34:03.098Z,1.30
2023-01-13T06:36:36.501Z,2.10
2023-01-13T06:39:05.612Z,1.50
2023-01-13T06:41:52.243Z,1.60
2023-01-13T06:44:21.769Z,1.50
2023-01-13T06:46:50.225Z,1.60
2023-01-13T06:49:21.670Z,1.25
2023-01-13T06:51:50.745Z,1.40
2023-01-13T06:54:19.093Z,1.40
2023-01-13T06:56:47.372Z,2.00
2023-01-13T06:59:15.601Z,1.50
2023-01-13T07:01:44.504Z,1.50
2023-01-13T07:04:13.774Z,2.20
2023-01-13T07:06:43.387Z,1.23
2023-01-13T07:09:11.754Z,1.50
2023-01-13T07:11:39.973Z,1.38
2023-01-13T07:14:25.433Z,1.35
2023-01-13T07:16:53.934Z,1.50
2023-01-13T07:19:23.862Z,1.60
2023-01-13T07:21:54.025Z,1.10
2023-01-13T07:24:22.909Z,1.30
2023-01-13T07:26:52.463Z,1.42
2023-01-13T07:29:21.132Z,1.50
2023-01-13T07:31:50.202Z,1.50
2023-01-13T07:34:18.740Z,1.52
2023-01-13T07:36:47.003Z,1.55
2023-01-13T07:39:16.588Z,1.10
2023-01-13T07:42:02.343Z,1.95
2023-01-13T07:44:30.655Z,1.70
2023-01-13T07:46:58.785Z,1.80
2023-01-13T07:49:27.138Z,1.23
2023-01-13T07:51:55.365Z,1.60
2023-01-13T07:54:39.829Z,1.50
2023-01-13T07:57:10.078Z,1.20
2023-01-13T07:59:38.347Z,1.67
2023-01-13T08:02:06.682Z,1.50
2023-01-13T08:04:35.674Z,1.73
2023-01-13T08:07:04.953Z,1.40
2023-01-13T08:09:34.580Z,1.52
2023-01-13T08:12:19.975Z,1.20
2023-01-13T08:14:50.202Z,1.40
2023-01-13T08:17:20.440Z,1.17
2023-01-13T08:19:48.989Z,1.00
2023-01-13T08:22:17.275Z,0.90
2023-01-13T08:24:46.956Z,1.23
2023-01-13T08:27:15.446Z,1.10
2023-01-13T08:29:43.590Z,1.60
2023-01-13T08:32:11.840Z,1.00
2023-01-13T08:34:40.166Z,1.95
2023-01-13T08:37:08.458Z,1.40
2023-01-13T08:39:36.657Z,1.50
2023-01-13T08:42:06.451Z,1.40
2023-01-13T08:44:34.957Z,1.23
2023-01-13T08:47:04.221Z,1.48
2023-01-13T08:49:32.476Z,1.90
2023-01-13T08:52:00.741Z,1.20
2023-01-13T08:54:28.954Z,1.15
2023-01-13T08:56:57.450Z,2.30
2023-01-13T08:59:27.121Z,1.80
2023-01-13T09:01:55.551Z,1.60
2023-01-13T09:04:25.285Z,1.48
2023-01-13T09:06:53.691Z,1.58
2023-01-13T09:09:22.959Z,2.05
2023-01-13T09:12:10.207Z,1.65
2023-01-13T09:14:40.522Z,1.70
2023-01-13T09:17:08.908Z,1.58
2023-01-13T09:19:37.535Z,2.05
2023-01-13T09:22:05.758Z,1.60
2023-01-13T09:24:34.081Z,2.33
2023-01-13T09:27:02.356Z,1.75
2023-01-13T09:29:30.702Z,2.08
2023-01-13T09:32:00.367Z,1.70
2023-01-13T09:34:45.995Z,1.45
2023-01-13T09:37:14.204Z,1.50
2023-01-13T09:39:42.585Z,1.80
2023-01-13T09:42:35.811Z,1.30
2023-01-13T09:45:07.988Z,1.98
2023-01-13T09:47:45.071Z,1.30
2023-01-13T09:50:25.528Z,1.20
2023-01-13T09:52:54.553Z,1.40
2023-01-13T09:55:30.213Z,1.70
2023-01-13T09:57:58.466Z,1.55
2023-01-13T10:00:30.788Z,1.50
2023-01-13T10:03:19.395Z,1.52
2023-01-13T10:05:56.513Z,1.92
2023-01-13T10:08:27.990Z,2.00
2023-01-13T10:10:58.213Z,1.90
2023-01-13T10:13:27.818Z,1.65
2023-01-13T10:16:25.233Z,1.50
2023-01-13T10:19:05.923Z,1.92
2023-01-13T10:21:53.758Z,1.80
2023-01-13T10:24:30.291Z,1.73
2023-01-13T10:27:04.625Z,1.30
2023-01-13T10:29:34.652Z,2.00
2023-01-13T10:32:02.957Z,1.90
2023-01-13T10:34:32.619Z,1.70
2023-01-13T10:37:06.455Z,1.92
2023-01-13T10:39:43.071Z,1.90
2023-01-13T10:42:15.217Z,1.90
2023-01-13T10:44:51.774Z,1.63
2023-01-13T10:47:26.576Z,2.42
2023-01-13T10:50:19.223Z,1.70
2023-01-13T10:53:02.953Z,2.33
2023-01-13T10:55:33.701Z,1.70
2023-01-13T10:58:14.148Z,2.50
2023-01-13T11:00:42.560Z,1.70
2023-01-13T11:03:20.669Z,1.55
2023-01-13T11:05:57.652Z,2.78
2023-01-13T11:08:28.237Z,1.63
2023-01-13T11:10:59.656Z,2.25
2023-01-13T11:13:33.212Z,2.63
2023-01-13T11:16:06.600Z,2.10
2023-01-13T11:18:51.843Z,2.10
2023-01-13T11:21:25.275Z,2.00
2023-01-13T11:24:03.698Z,1.70
2023-01-13T11:26:43.566Z,1.60
2023-01-13T11:29:19.564Z,1.80
2023-01-13T11:31:53.327Z,1.80
2023-01-13T11:34:29.770Z,2.00
2023-01-13T11:37:03.177Z,1.95
2023-01-13T11:39:42.958Z,1.70
2023-01-13T11:42:22.611Z,1.95
2023-01-13T11:44:57.433Z,2.00
2023-01-13T11:47:28.191Z,1.70
2023-01-13T11:49:57.043Z,1.83
2023-01-13T11:52:35.130Z,2.30
2023-01-13T11:55:22.678Z,1.60
2023-01-13T11:58:06.597Z,2.00
2023-01-13T12:00:43.211Z,2.35
2023-01-13T12:03:25.513Z,2.17
2023-01-13T12:06:09.107Z,1.88
2023-01-13T12:09:09.953Z,1.93
2023-01-13T12:12:01.566Z,1.80
2023-01-13T12:14:41.423Z,1.58
2023-01-13T12:17:20.445Z,1.92
2023-01-13T12:19:52.162Z,1.93
2023-01-13T12:22:27.139Z,1.85
2023-01-13T12:25:06.756Z,1.60
2023-01-13T12:27:42.539Z,2.17
2023-01-13T12:30:23.815Z,2.20
2023-01-13T12:32:55.242Z,3.08
2023-01-13T12:35:37.837Z,1.90
2023-01-13T12:38:12.824Z,2.20
2023-01-13T12:40:57.372Z,2.80
2023-01-13T12:43:40.202Z,1.83
2023-01-13T12:46:44.840Z,2.50
2023-01-13T12:49:27.176Z,2.40
2023-01-13T12:52:22.560Z,1.70
2023-01-13T12:55:10.156Z,2.10
2023-01-13T12:57:40.355Z,1.50
2023-01-13T13:00:17.489Z,1.75
2023-01-13T13:03:27.408Z,1.23
2023-01-13T13:06:06.483Z,1.60
2023-01-13T13:08:51.701Z,1.98
2023-01-13T13:11:53.529Z,1.88
2023-01-13T13:14:51.623Z,1.90
2023-01-13T13:17:46.085Z,2.03
2023-01-13T13:20:55.065Z,1.95
2023-01-13T13:24:04.001Z,2.50
2023-01-13T13:26:40.349Z,1.80
2023-01-13T13:29:31.871Z,1.88
2023-01-13T13:32:38.137Z,1.70
2023-01-13T13:35:24.289Z,2.38
2023-01-13T13:38:24.279Z,2.20
2023-01-13T13:41:10.110Z,2.55
2023-01-13T13:43:59.138Z,1.60
2023-01-13T13:46:48.011Z,1.90
2023-01-13T13:49:17.528Z,1.50
2023-01-13T13:51:52.330Z,2.17
2023-01-13T13:54:23.712Z,3.88
2023-01-13T13:56:53.136Z,2.22
2023-01-13T13:59:24.488Z,1.60
2023-01-13T14:02:01.662Z,2.10
2023-01-13T14:04:32.605Z,1.88
2023-01-13T14:07:05.055Z,2.80
2023-01-13T14:09:42.872Z,1.20
2023-01-13T14:12:19.359Z,1.30
2023-01-13T14:14:48.432Z,0.90
2023-01-13T14:17:20.588Z,0.93
2023-01-13T14:19:54.527Z,1.38
2023-01-13T14:22:24.431Z,1.20
2023-01-13T14:24:55.734Z,2.00
2023-01-13T14:27:26.804Z,2.17
2023-01-13T14:29:56.578Z,1.90
2023-01-13T14:32:34.297Z,1.90
2023-01-13T14:35:02.820Z,2.50
2023-01-13T14:37:36.739Z,2.63
2023-01-13T14:40:05.639Z,2.60
2023-01-13T14:42:35.525Z,1.97
2023-01-13T14:45:04.721Z,1.80
2023-01-13T14:47:34.719Z,2.30
2023-01-13T14:50:06.992Z,2.25
2023-01-13T14:52:47.684Z,3.05
2023-01-13T14:55:29.512Z,2.20
2023-01-13T14:58:24.113Z,2.30
2023-01-13T15:00:53.786Z,2.00
2023-01-13T15:03:22.791Z,2.00
2023-01-13T15:05:53.136Z,2.13
2023-01-13T15:08:37.056Z,1.80
2023-01-13T15:11:07.711Z,1.85
2023-01-13T15:13:49.449Z,2.30
2023-01-13T15:16:24.909Z,2.50
2023-01-13T15:18:53.804Z,1.95
2023-01-13T15:21:23.175Z,2.13
2023-01-13T15:23:53.160Z,2.40
2023-01-13T15:26:24.719Z,2.00
2023-01-13T15:28:54.521Z,2.72
2023-01-13T15:31:23.422Z,1.95
2023-01-13T15:33:51.986Z,2.78
2023-01-13T15:36:26.505Z,2.42
2023-01-13T15:38:56.445Z,2.70
2023-01-13T15:41:42.774Z,2.80
2023-01-13T15:44:31.030Z,2.13
2023-01-13T15:47:04.078Z,2.53
2023-01-13T15:49:36.461Z,1.90
2023-01-13T15:52:07.761Z,2.42
2023-01-13T15:54:37.725Z,2.50
2023-01-13T15:57:06.102Z,2.73
2023-01-13T15:59:34.291Z,2.60
2023-01-13T16:02:02.663Z,2.40
2023-01-13T16:04:30.868Z,2.00
2023-01-13T16:06:59.144Z,2.90
2023-01-13T16:09:27.348Z,2.40
2023-01-13T16:11:56.920Z,2.80
2023-01-13T16:14:25.081Z,2.40
2023-01-13T16:16:53.406Z,2.60
2023-01-13T16:19:21.614Z,2.47
2023-01-13T16:21:50.008Z,3.00
2023-01-13T16:24:18.176Z,2.30
2023-01-13T16:26:46.647Z,2.53
2023-01-13T16:29:16.298Z,2.60
2023-01-13T16:31:44.653Z,3.20
2023-01-13T16:34:12.934Z,3.10
2023-01-13T16:36:41.195Z,3.03
2023-01-13T16:39:21.309Z,2.03
2023-01-13T16:41:49.650Z,2.63
2023-01-13T16:44:19.427Z,2.08
2023-01-13T16:46:47.740Z,2.47
2023-01-13T16:49:18.514Z,2.00
2023-01-13T16:51:47.109Z,2.00
2023-01-13T16:54:15.471Z,2.25
2023-01-13T16:56:44.459Z,2.00
2023-01-13T16:59:14.787Z,2.92
2023-01-13T17:01:45.963Z,3.13
2023-01-13T17:04:16.967Z,3.03
2023-01-13T17:06:52.239Z,2.13
2023-01-13T17:09:23.038Z,2.50
2023-01-13T17:11:51.489Z,2.10
2023-01-13T17:14:23.113Z,2.40
2023-01-13T17:16:54.953Z,3.10
2023-01-13T17:19:24.021Z,5.32
2023-01-13T17:21:52.259Z,2.78
2023-01-13T17:24:20.630Z,2.80
2023-01-13T17:26:50.433Z,4.70
2023-01-13T17:29:22.048Z,4.10
2023-01-13T17:31:52.304Z,7.47
2023-01-13T17:34:21.601Z,13.80
2023-01-13T17:36:50.158Z,13.65
2023-01-13T17:39:20.369Z,5.13
2023-01-13T17:41:49.040Z,4.82
2023-01-13T17:44:18.384Z,4.80
2023-01-13T17:46:47.830Z,6.90
2023-01-13T17:49:18.962Z,3.05
2023-01-13T17:51:48.427Z,4.97
2023-01-13T17:54:17.046Z,3.67
2023-01-13T17:56:45.570Z,2.13
2023-01-13T17:59:15.746Z,2.40
2023-01-13T18:01:44.216Z,2.38
2023-01-13T18:04:17.585Z,2.10
2023-01-13T18:06:46.515Z,2.20
2023-01-13T18:09:14.841Z,2.70
2023-01-13T18:11:45.578Z,3.13
2023-01-13T18:14:14.893Z,2.20
2023-01-13T18:16:43.543Z,2.80
2023-01-13T18:19:29.404Z,2.50
2023-01-13T18:22:16.393Z,2.33
2023-01-13T18:25:02.097Z,1.98
2023-01-13T18:27:34.696Z,1.70
2023-01-13T18:30:04.807Z,2.55
2023-01-13T18:32:34.376Z,2.97
2023-01-13T18:35:06.653Z,2.80
2023-01-13T18:37:38.664Z,2.80
2023-01-13T18:40:09.346Z,2.13
2023-01-13T18:42:51.987Z,2.33
2023-01-13T18:45:20.662Z,2.60
2023-01-13T18:47:48.966Z,2.90
2023-01-13T18:50:18.814Z,1.85
2023-01-13T18:52:49.085Z,1.85
2023-01-13T18:55:17.671Z,2.00
2023-01-13T18:57:47.205Z,1.90
2023-01-13T19:00:17.874Z,2.10
2023-01-13T19:02:47.273Z,2.40
2023-01-13T19:05:15.858Z,2.05
2023-01-13T19:07:50.293Z,1.80
2023-01-13T19:10:20.434Z,2.70
2023-01-13T19:12:48.688Z,2.10
2023-01-13T19:15:17.282Z,2.15
2023-01-13T19:17:46.754Z,2.70
2023-01-13T19:20:15.179Z,1.80
2023-01-13T19:22:43.538Z,2.40
2023-01-13T19:25:11.890Z,2.90
2023-01-13T19:27:42.754Z,3.03
2023-01-13T19:30:12.411Z,2.40
2023-01-13T19:32:40.893Z,2.70
2023-01-13T19:35:09.944Z,2.80
2023-01-13T19:37:38.383Z,2.90
2023-01-13T19:40:09.344Z,2.30
2023-01-13T19:42:55.579Z,2.75
2023-01-13T19:45:27.917Z,2.30
2023-01-13T19:47:57.054Z,2.30
2023-01-13T19:50:25.917Z,2.00
2023-01-13T19:52:54.480Z,2.45
2023-01-13T19:55:23.042Z,3.67
2023-01-13T19:57:51.360Z,2.55
2023-01-13T20:00:20.992Z,2.35
2023-01-13T20:02:53.249Z,2.90
2023-01-13T20:05:25.634Z,2.83
2023-01-13T20:07:54.167Z,2.33
2023-01-13T20:10:24.037Z,2.17
2023-01-13T20:12:52.563Z,3.23
2023-01-13T20:15:20.960Z,3.80
2023-01-13T20:17:50.878Z,4.28
2023-01-13T20:20:20.595Z,3.90
2023-01-13T20:22:50.284Z,4.00
2023-01-13T20:25:19.167Z,3.97
2023-01-13T20:27:49.023Z,4.03
2023-01-13T20:30:17.525Z,5.50
2023-01-13T20:32:45.893Z,4.00
2023-01-13T20:35:16.149Z,2.30
2023-01-13T20:37:44.769Z,3.80
2023-01-13T20:40:17.919Z,2.88
2023-01-13T20:42:45.461Z,2.50
2023-01-13T20:45:17.444Z,2.63
2023-01-13T20:47:46.847Z,3.15
2023-01-13T20:50:17.779Z,3.30
2023-01-13T20:52:46.463Z,2.95
2023-01-13T20:55:15.158Z,2.60
2023-01-13T20:57:43.718Z,2.63
2023-01-13T21:00:14.420Z,2.53
2023-01-13T21:02:44.028Z,2.03
2023-01-13T21:05:12.246Z,1.98
2023-01-13T21:07:41.797Z,2.30
2023-01-13T21:10:11.722Z,2.35
2023-01-13T21:12:57.158Z,3.40
2023-01-13T21:15:25.928Z,2.30
2023-01-13T21:18:11.513Z,3.22
2023-01-13T21:20:40.629Z,2.75
2023-01-13T21:23:11.802Z,2.17
2023-01-13T21:25:40.439Z,2.25
2023-01-13T21:28:11.496Z,2.37
2023-01-13T21:30:40.451Z,3.03
2023-01-13T21:33:09.225Z,2.05
2023-01-13T21:35:40.483Z,2.40
2023-01-13T21:38:10.715Z,2.30
2023-01-13T21:40:38.945Z,2.28
2023-01-13T21:43:24.807Z,2.30
2023-01-13T21:46:10.343Z,2.83
2023-01-13T21:48:38.627Z,2.55
2023-01-13T21:51:07.029Z,2.25
2023-01-13T21:53:36.677Z,2.40
2023-01-13T21:56:05.368Z,1.90
2023-01-13T21:58:33.907Z,2.22
2023-01-13T22:01:03.928Z,2.45
2023-01-13T22:03:52.711Z,2.15
2023-01-13T22:06:21.023Z,2.30
2023-01-13T22:08:50.788Z,2.20
2023-01-13T22:11:19.031Z,1.80
2023-01-13T22:14:04.620Z,1.90
2023-01-13T22:16:33.972Z,2.38
2023-01-13T22:19:04.917Z,3.15
2023-01-13T22:21:33.154Z,2.00
2023-01-13T22:24:03.405Z,2.17
2023-01-13T22:26:32.020Z,2.08
2023-01-13T22:29:02.242Z,2.45
2023-01-13T22:31:31.604Z,2.53
2023-01-13T22:34:00.048Z,1.90
2023-01-13T22:36:32.722Z,2.60
2023-01-13T22:39:02.463Z,2.80
2023-01-13T22:41:30.716Z,2.70
2023-01-13T22:43:58.912Z,3.50
2023-01-13T22:46:27.239Z,2.60
2023-01-13T22:48:55.928Z,2.10
2023-01-13T22:51:24.327Z,2.88
2023-01-13T22:53:52.906Z,2.10
2023-01-13T22:56:24.719Z,2.60
2023-01-13T22:58:55.167Z,3.13
2023-01-13T23:01:24.059Z,2.50
2023-01-13T23:03:52.916Z,2.47
2023-01-13T23:06:23.070Z,2.60
2023-01-13T23:08:52.428Z,2.58
2023-01-13T23:11:24.699Z,2.97
2023-01-13T23:13:57.747Z,2.30
2023-01-13T23:16:26.661Z,2.20
2023-01-13T23:18:54.935Z,2.22
2023-01-13T23:21:26.086Z,2.67
2023-01-13T23:23:54.967Z,2.35
2023-01-13T23:26:24.966Z,2.17
2023-01-13T23:28:53.249Z,2.47
2023-01-13T23:31:23.102Z,2.23
2023-01-13T23:33:51.345Z,2.30
2023-01-13T23:36:21.244Z,3.30
2023-01-13T23:38:49.837Z,3.30
2023-01-13T23:41:20.766Z,2.40
2023-01-13T23:43:54.986Z,2.80
2023-01-13T23:46:23.516Z,2.47
2023-01-13T23:48:52.024Z,2.15
2023-01-13T23:51:21.967Z,3.47
2023-01-13T23:53:51.236Z,3.60
2023-01-13T23:56:21.699Z,2.88
2023-01-13T23:58:51.079Z,3.58
